Lawson Army Air Field (Fort Benning)
KLSF : now visible

Airfield :











YOU CAN JOIN US ON...

 
LOGIN :

Register | Disclaimer

   EN    FR    IT 

 









Legend :    VFR   Marginal VFR   IFR   Intensive IFR   Very Intensive IFR
Visi :
Ceiling :
>= 8 km
>= 3000ft
5 to 8 km
1000 to 3000 ft
1500m to 5 km
500 to 1000 ft
800 to 1500m
200 to 500 ft
< 800m
< 200 ft
Symbols :   Thunderstorms  Fog  Heavy snow  Heavy precipitations  Wind > 20 kt






- Airport Elevation : 232 ft


KLSF - Lawson Army Air Field (Fort Benning)

CURRENT METAR :
  • 250456Z AUTO 00000KT 10SM OVC003 20/19 A2992 RMK AO2 CIG 002 RWY15 SLP135 T01960188 402620164 $

EXPIRED METARs :
  • 250356Z AUTO 00000KT 10SM BKN004 OVC029 19/18 A2993 RMK AO2 SLP139 T01890181 $
  • 250318Z AUTO 00000KT 4SM BR BKN003 BKN030 OVC038 19/18 A2993 RMK AO2 VIS 2 1/4 RWY15 CIG 003V037 BKN003 V FEW SLP139 $
  • 250308Z AUTO 00000KT 1 3/8SM BR FEW003 BKN034 BKN042 OVC085 18/17 A2992 RMK AO2 SLP135 $
  • 250301Z AUTO 00000KT 1 1/8SM BR BKN036 BKN080 18/18 A2992 RMK AO2 SLP135 $
  • 250251Z AUTO 00000KT 7/8SM R33/3500V6000FT BR BKN034 18/17 A2992 RMK AO2 SLP136 $

TAF TAF KLSF
Valid from the 24 at 01:00 until the 25 at 07:00 UTC


240100Z 2401/2507 VRB03KT 8000 BR FEW020 SCT060 QNH3001INS
TEMPO 2401/2408 1600 BR
BECMG 2408/2409 13005KT 4800 VCSH BR FEW010 BKN020 QNH2995INS
BECMG 2413/2414 14006KT 8000 -SHRA BKN010 OVC020 QNH2992INS
BECMG 2417/2418 17008KT 6000 -SHRA VCTS BKN018 OVC040 QNH2988INS
TEMPO 2418/2423 VRB15G30KT 4800 TSRA OVC015
BECMG 2502/2503 VRB05KT 4800 BR OVC010 QNH2990INS TX22/2418Z TN17/2409Z LAST NO AMDS AFT 2403 NEXT 2609
KZTL FIR / North America



MET'MAP, your aeronautical weather chart ! - Copyright ORBIFLY December 2007 - Disclaimer

ORBIFLY MET'MAP TEAM :

Programming & Development : Alexandra Zaïnal
Concept & original design : Baudouin d'Aumeries
Assistance for programming : Marc-Olivier Méhu
Technical & hardware support : Manuel Goepfert

Contact : metmap@orbifly.com




SOURCES & CREDITS :

   NOAA       Earth
Advisory